sensor_id;sensor_type;location;lat;lon;timestamp;P1;durP1;ratioP1;P2;durP2;ratioP2
51190;SDS011;37253;48.736;9.294;2023-09-30T00:00:37;11.18;;;5.25;;
51190;SDS011;37253;48.736;9.294;2023-09-30T00:02:37;9.10;;;4.25;;
51190;SDS011;37253;48.736;9.294;2023-09-30T00:04:38;12.48;;;5.18;;
51190;SDS011;37253;48.736;9.294;2023-09-30T00:06:39;13.15;;;6.07;;
51190;SDS011;37253;48.736;9.294;2023-09-30T00:08:39;10.52;;;5.82;;
51190;SDS011;37253;48.736;9.294;2023-09-30T00:10:41;10.25;;;5.28;;
51190;SDS011;37253;48.736;9.294;2023-09-30T00:12:42;12.63;;;6.38;;
51190;SDS011;37253;48.736;9.294;2023-09-30T00:14:43;11.63;;;5.35;;
51190;SDS011;37253;48.736;9.294;2023-09-30T00:16:43;10.23;;;4.93;;
51190;SDS011;37253;48.736;9.294;2023-09-30T00:18:44;13.13;;;5.07;;
51190;SDS011;37253;48.736;9.294;2023-09-30T00:20:44;9.77;;;5.35;;
51190;SDS011;37253;48.736;9.294;2023-09-30T00:22:45;11.35;;;5.75;;
51190;SDS011;37253;48.736;9.294;2023-09-30T00:24:45;9.15;;;4.65;;
51190;SDS011;37253;48.736;9.294;2023-09-30T00:26:45;12.35;;;5.43;;
51190;SDS011;37253;48.736;9.294;2023-09-30T00:28:46;10.55;;;5.00;;
51190;SDS011;37253;48.736;9.294;2023-09-30T00:30:46;11.23;;;5.30;;
51190;SDS011;37253;48.736;9.294;2023-09-30T00:32:47;11.25;;;5.30;;
51190;SDS011;37253;48.736;9.294;2023-09-30T00:34:47;9.93;;;5.47;;
51190;SDS011;37253;48.736;9.294;2023-09-30T00:36:48;12.98;;;5.57;;
51190;SDS011;37253;48.736;9.294;2023-09-30T00:38:49;11.70;;;5.82;;
51190;SDS011;37253;48.736;9.294;2023-09-30T00:40:49;10.85;;;5.30;;
51190;SDS011;37253;48.736;9.294;2023-09-30T00:42:49;10.40;;;4.95;;
51190;SDS011;37253;48.736;9.294;2023-09-30T00:44:50;9.07;;;5.18;;
51190;SDS011;37253;48.736;9.294;2023-09-30T00:46:50;10.63;;;5.22;;
51190;SDS011;37253;48.736;9.294;2023-09-30T00:48:51;9.80;;;5.10;;
51190;SDS011;37253;48.736;9.294;2023-09-30T00:50:51;13.10;;;5.63;;
51190;SDS011;37253;48.736;9.294;2023-09-30T00:52:52;10.40;;;4.75;;
51190;SDS011;37253;48.736;9.294;2023-09-30T00:54:52;9.55;;;4.88;;
51190;SDS011;37253;48.736;9.294;2023-09-30T00:56:54;10.63;;;5.13;;
51190;SDS011;37253;48.736;9.294;2023-09-30T01:00:58;8.98;;;4.80;;
51190;SDS011;37253;48.736;9.294;2023-09-30T01:02:59;8.18;;;4.57;;
51190;SDS011;37253;48.736;9.294;2023-09-30T01:05:04;11.13;;;5.15;;
51190;SDS011;37253;48.736;9.294;2023-09-30T01:07:05;9.10;;;4.47;;
51190;SDS011;37253;48.736;9.294;2023-09-30T01:09:05;9.45;;;4.47;;
51190;SDS011;37253;48.736;9.294;2023-09-30T01:11:06;10.77;;;5.05;;
51190;SDS011;37253;48.736;9.294;2023-09-30T01:13:06;10.02;;;4.57;;
51190;SDS011;37253;48.736;9.294;2023-09-30T01:15:07;8.82;;;4.38;;
51190;SDS011;37253;48.736;9.294;2023-09-30T01:17:07;9.57;;;4.80;;
51190;SDS011;37253;48.736;9.294;2023-09-30T01:19:13;8.80;;;4.70;;
51190;SDS011;37253;48.736;9.294;2023-09-30T01:21:13;10.50;;;5.18;;
51190;SDS011;37253;48.736;9.294;2023-09-30T01:23:14;10.35;;;4.90;;
51190;SDS011;37253;48.736;9.294;2023-09-30T01:25:14;8.25;;;4.15;;
51190;SDS011;37253;48.736;9.294;2023-09-30T01:27:15;10.15;;;4.45;;
51190;SDS011;37253;48.736;9.294;2023-09-30T01:29:18;10.05;;;4.43;;
51190;SDS011;37253;48.736;9.294;2023-09-30T01:31:18;9.32;;;4.60;;
51190;SDS011;37253;48.736;9.294;2023-09-30T01:33:19;8.15;;;4.90;;
51190;SDS011;37253;48.736;9.294;2023-09-30T01:35:19;10.13;;;4.38;;
51190;SDS011;37253;48.736;9.294;2023-09-30T01:37:19;10.73;;;4.40;;
51190;SDS011;37253;48.736;9.294;2023-09-30T01:39:19;10.32;;;4.68;;
51190;SDS011;37253;48.736;9.294;2023-09-30T01:41:20;7.95;;;3.80;;
51190;SDS011;37253;48.736;9.294;2023-09-30T01:43:20;8.30;;;4.40;;
51190;SDS011;37253;48.736;9.294;2023-09-30T01:45:21;7.97;;;3.97;;
51190;SDS011;37253;48.736;9.294;2023-09-30T01:47:21;8.43;;;4.05;;
51190;SDS011;37253;48.736;9.294;2023-09-30T01:49:21;6.80;;;3.83;;
51190;SDS011;37253;48.736;9.294;2023-09-30T01:51:24;8.23;;;4.32;;
51190;SDS011;37253;48.736;9.294;2023-09-30T01:53:24;10.73;;;4.45;;
51190;SDS011;37253;48.736;9.294;2023-09-30T01:55:24;9.55;;;4.57;;
51190;SDS011;37253;48.736;9.294;2023-09-30T01:57:25;8.45;;;4.28;;
51190;SDS011;37253;48.736;9.294;2023-09-30T01:59:25;8.13;;;4.07;;
51190;SDS011;37253;48.736;9.294;2023-09-30T02:01:26;8.25;;;4.20;;
51190;SDS011;37253;48.736;9.294;2023-09-30T02:03:26;8.02;;;4.18;;
51190;SDS011;37253;48.736;9.294;2023-09-30T02:05:26;7.85;;;3.70;;
51190;SDS011;37253;48.736;9.294;2023-09-30T02:07:27;7.82;;;4.00;;
51190;SDS011;37253;48.736;9.294;2023-09-30T02:09:27;11.15;;;4.43;;
51190;SDS011;37253;48.736;9.294;2023-09-30T02:11:28;7.97;;;3.83;;
51190;SDS011;37253;48.736;9.294;2023-09-30T02:13:28;8.93;;;4.05;;
51190;SDS011;37253;48.736;9.294;2023-09-30T02:15:29;8.95;;;4.47;;
51190;SDS011;37253;48.736;9.294;2023-09-30T02:17:29;7.88;;;4.07;;
51190;SDS011;37253;48.736;9.294;2023-09-30T02:19:30;7.28;;;3.33;;
51190;SDS011;37253;48.736;9.294;2023-09-30T02:21:33;7.45;;;3.72;;
51190;SDS011;37253;48.736;9.294;2023-09-30T02:23:35;7.55;;;4.10;;
51190;SDS011;37253;48.736;9.294;2023-09-30T02:25:39;7.10;;;3.50;;
51190;SDS011;37253;48.736;9.294;2023-09-30T02:27:40;6.22;;;3.67;;
51190;SDS011;37253;48.736;9.294;2023-09-30T02:29:41;6.97;;;3.35;;
51190;SDS011;37253;48.736;9.294;2023-09-30T02:31:41;7.78;;;3.90;;
51190;SDS011;37253;48.736;9.294;2023-09-30T02:33:41;6.57;;;3.03;;
51190;SDS011;37253;48.736;9.294;2023-09-30T02:35:44;6.28;;;3.38;;
51190;SDS011;37253;48.736;9.294;2023-09-30T02:37:45;6.20;;;3.35;;
51190;SDS011;37253;48.736;9.294;2023-09-30T02:39:45;8.25;;;3.92;;
51190;SDS011;37253;48.736;9.294;2023-09-30T02:41:46;6.75;;;3.80;;
51190;SDS011;37253;48.736;9.294;2023-09-30T02:43:46;8.25;;;3.80;;
51190;SDS011;37253;48.736;9.294;2023-09-30T02:45:47;6.50;;;3.25;;
51190;SDS011;37253;48.736;9.294;2023-09-30T02:47:47;7.60;;;3.60;;
51190;SDS011;37253;48.736;9.294;2023-09-30T02:49:48;6.93;;;3.67;;
51190;SDS011;37253;48.736;9.294;2023-09-30T02:51:49;6.30;;;3.40;;
51190;SDS011;37253;48.736;9.294;2023-09-30T02:53:50;5.68;;;3.45;;
51190;SDS011;37253;48.736;9.294;2023-09-30T02:55:50;7.32;;;3.38;;
51190;SDS011;37253;48.736;9.294;2023-09-30T02:57:56;7.05;;;3.15;;
51190;SDS011;37253;48.736;9.294;2023-09-30T02:59:56;5.38;;;2.67;;
51190;SDS011;37253;48.736;9.294;2023-09-30T03:01:56;5.78;;;3.25;;
51190;SDS011;37253;48.736;9.294;2023-09-30T03:03:56;6.90;;;3.40;;
51190;SDS011;37253;48.736;9.294;2023-09-30T03:05:57;5.22;;;2.67;;
51190;SDS011;37253;48.736;9.294;2023-09-30T03:07:57;6.07;;;3.20;;
51190;SDS011;37253;48.736;9.294;2023-09-30T03:09:57;6.20;;;3.05;;
51190;SDS011;37253;48.736;9.294;2023-09-30T03:11:58;8.45;;;3.35;;
51190;SDS011;37253;48.736;9.294;2023-09-30T03:13:59;6.28;;;2.83;;
51190;SDS011;37253;48.736;9.294;2023-09-30T03:16:00;6.53;;;3.00;;
51190;SDS011;37253;48.736;9.294;2023-09-30T03:18:01;6.28;;;2.92;;
51190;SDS011;37253;48.736;9.294;2023-09-30T03:20:03;5.88;;;2.65;;
51190;SDS011;37253;48.736;9.294;2023-09-30T03:22:12;7.55;;;3.33;;
51190;SDS011;37253;48.736;9.294;2023-09-30T03:24:12;5.72;;;2.92;;
51190;SDS011;37253;48.736;9.294;2023-09-30T03:26:12;6.80;;;3.00;;
51190;SDS011;37253;48.736;9.294;2023-09-30T03:28:13;5.82;;;3.05;;
51190;SDS011;37253;48.736;9.294;2023-09-30T03:30:15;5.72;;;3.17;;
51190;SDS011;37253;48.736;9.294;2023-09-30T03:32:16;6.20;;;3.05;;
51190;SDS011;37253;48.736;9.294;2023-09-30T03:34:16;5.60;;;2.78;;
51190;SDS011;37253;48.736;9.294;2023-09-30T03:36:16;4.40;;;2.58;;
51190;SDS011;37253;48.736;9.294;2023-09-30T03:38:18;5.40;;;2.80;;
51190;SDS011;37253;48.736;9.294;2023-09-30T03:40:20;4.82;;;2.85;;
51190;SDS011;37253;48.736;9.294;2023-09-30T03:42:27;5.40;;;2.85;;
51190;SDS011;37253;48.736;9.294;2023-09-30T03:44:29;6.20;;;2.78;;
51190;SDS011;37253;48.736;9.294;2023-09-30T03:46:30;4.75;;;2.50;;
51190;SDS011;37253;48.736;9.294;2023-09-30T03:48:30;4.78;;;2.58;;
51190;SDS011;37253;48.736;9.294;2023-09-30T03:50:31;4.22;;;2.28;;
51190;SDS011;37253;48.736;9.294;2023-09-30T03:52:33;6.22;;;2.72;;
51190;SDS011;37253;48.736;9.294;2023-09-30T03:54:34;7.28;;;2.72;;
51190;SDS011;37253;48.736;9.294;2023-09-30T03:56:34;5.07;;;2.88;;
51190;SDS011;37253;48.736;9.294;2023-09-30T03:58:34;5.00;;;2.92;;
51190;SDS011;37253;48.736;9.294;2023-09-30T04:00:36;4.32;;;2.33;;
51190;SDS011;37253;48.736;9.294;2023-09-30T04:02:36;4.55;;;2.63;;
51190;SDS011;37253;48.736;9.294;2023-09-30T04:04:36;7.18;;;2.58;;
51190;SDS011;37253;48.736;9.294;2023-09-30T04:06:37;5.25;;;2.65;;
51190;SDS011;37253;48.736;9.294;2023-09-30T04:08:38;5.03;;;2.33;;
51190;SDS011;37253;48.736;9.294;2023-09-30T04:10:39;5.22;;;2.47;;
51190;SDS011;37253;48.736;9.294;2023-09-30T04:12:39;4.53;;;2.40;;
51190;SDS011;37253;48.736;9.294;2023-09-30T04:14:39;4.93;;;2.53;;
51190;SDS011;37253;48.736;9.294;2023-09-30T04:16:40;4.22;;;2.45;;
51190;SDS011;37253;48.736;9.294;2023-09-30T04:18:41;6.00;;;2.90;;
51190;SDS011;37253;48.736;9.294;2023-09-30T04:20:41;5.68;;;2.65;;
51190;SDS011;37253;48.736;9.294;2023-09-30T04:22:42;3.95;;;2.05;;
51190;SDS011;37253;48.736;9.294;2023-09-30T04:24:46;3.58;;;1.95;;
51190;SDS011;37253;48.736;9.294;2023-09-30T04:26:46;6.32;;;2.10;;
51190;SDS011;37253;48.736;9.294;2023-09-30T04:28:46;3.95;;;2.15;;
51190;SDS011;37253;48.736;9.294;2023-09-30T04:30:50;3.92;;;2.00;;
51190;SDS011;37253;48.736;9.294;2023-09-30T04:32:51;5.00;;;2.00;;
51190;SDS011;37253;48.736;9.294;2023-09-30T04:34:51;5.25;;;2.67;;
51190;SDS011;37253;48.736;9.294;2023-09-30T04:36:51;4.80;;;2.40;;
51190;SDS011;37253;48.736;9.294;2023-09-30T04:38:52;5.72;;;2.67;;
51190;SDS011;37253;48.736;9.294;2023-09-30T04:40:52;4.70;;;2.42;;
51190;SDS011;37253;48.736;9.294;2023-09-30T04:42:54;5.13;;;2.70;;
51190;SDS011;37253;48.736;9.294;2023-09-30T04:44:58;4.28;;;2.17;;
51190;SDS011;37253;48.736;9.294;2023-09-30T04:46:59;4.72;;;2.03;;
51190;SDS011;37253;48.736;9.294;2023-09-30T04:49:00;3.75;;;2.30;;
51190;SDS011;37253;48.736;9.294;2023-09-30T04:51:05;5.35;;;2.05;;
51190;SDS011;37253;48.736;9.294;2023-09-30T04:53:06;3.40;;;2.08;;
51190;SDS011;37253;48.736;9.294;2023-09-30T04:55:07;4.07;;;1.85;;
51190;SDS011;37253;48.736;9.294;2023-09-30T04:57:08;5.10;;;2.20;;
51190;SDS011;37253;48.736;9.294;2023-09-30T04:59:09;4.93;;;2.22;;
51190;SDS011;37253;48.736;9.294;2023-09-30T05:01:09;3.08;;;1.88;;
51190;SDS011;37253;48.736;9.294;2023-09-30T05:03:09;5.90;;;2.08;;
51190;SDS011;37253;48.736;9.294;2023-09-30T05:05:09;4.40;;;2.55;;
51190;SDS011;37253;48.736;9.294;2023-09-30T05:07:10;3.97;;;2.15;;
51190;SDS011;37253;48.736;9.294;2023-09-30T05:09:13;3.30;;;2.05;;
51190;SDS011;37253;48.736;9.294;2023-09-30T05:11:13;4.05;;;2.42;;
51190;SDS011;37253;48.736;9.294;2023-09-30T05:13:14;2.85;;;2.03;;
51190;SDS011;37253;48.736;9.294;2023-09-30T05:15:15;4.32;;;2.33;;
51190;SDS011;37253;48.736;9.294;2023-09-30T05:17:16;5.45;;;2.55;;
51190;SDS011;37253;48.736;9.294;2023-09-30T05:19:16;3.58;;;2.10;;
51190;SDS011;37253;48.736;9.294;2023-09-30T05:21:16;3.17;;;1.73;;
51190;SDS011;37253;48.736;9.294;2023-09-30T05:23:17;2.95;;;1.67;;
51190;SDS011;37253;48.736;9.294;2023-09-30T05:25:17;3.88;;;2.03;;
51190;SDS011;37253;48.736;9.294;2023-09-30T05:27:18;3.92;;;1.80;;
51190;SDS011;37253;48.736;9.294;2023-09-30T05:29:19;3.58;;;2.00;;
51190;SDS011;37253;48.736;9.294;2023-09-30T05:31:20;3.60;;;2.00;;
51190;SDS011;37253;48.736;9.294;2023-09-30T05:33:21;4.15;;;2.00;;
51190;SDS011;37253;48.736;9.294;2023-09-30T05:35:22;3.35;;;2.13;;
51190;SDS011;37253;48.736;9.294;2023-09-30T05:37:24;5.00;;;2.10;;
51190;SDS011;37253;48.736;9.294;2023-09-30T05:39:26;3.45;;;1.90;;
51190;SDS011;37253;48.736;9.294;2023-09-30T05:41:26;3.47;;;1.95;;
51190;SDS011;37253;48.736;9.294;2023-09-30T05:43:27;4.13;;;2.15;;
51190;SDS011;37253;48.736;9.294;2023-09-30T05:45:32;17.25;;;2.90;;
51190;SDS011;37253;48.736;9.294;2023-09-30T05:47:35;5.30;;;2.75;;
51190;SDS011;37253;48.736;9.294;2023-09-30T05:49:36;12.25;;;3.00;;
51190;SDS011;37253;48.736;9.294;2023-09-30T05:51:36;9.52;;;2.72;;
51190;SDS011;37253;48.736;9.294;2023-09-30T05:53:36;7.70;;;2.47;;
51190;SDS011;37253;48.736;9.294;2023-09-30T05:55:38;7.68;;;2.42;;
51190;SDS011;37253;48.736;9.294;2023-09-30T05:57:38;5.88;;;2.40;;
51190;SDS011;37253;48.736;9.294;2023-09-30T05:59:39;6.63;;;1.92;;
51190;SDS011;37253;48.736;9.294;2023-09-30T06:01:39;4.97;;;2.40;;
51190;SDS011;37253;48.736;9.294;2023-09-30T06:03:39;4.65;;;1.75;;
51190;SDS011;37253;48.736;9.294;2023-09-30T06:05:40;6.47;;;1.60;;
51190;SDS011;37253;48.736;9.294;2023-09-30T06:07:41;5.85;;;1.70;;
51190;SDS011;37253;48.736;9.294;2023-09-30T06:09:45;5.50;;;1.80;;
51190;SDS011;37253;48.736;9.294;2023-09-30T06:11:47;7.22;;;1.98;;
51190;SDS011;37253;48.736;9.294;2023-09-30T06:13:47;4.75;;;1.83;;
51190;SDS011;37253;48.736;9.294;2023-09-30T06:15:48;5.15;;;1.70;;
51190;SDS011;37253;48.736;9.294;2023-09-30T06:17:50;4.45;;;2.03;;
51190;SDS011;37253;48.736;9.294;2023-09-30T06:19:53;10.52;;;2.20;;
51190;SDS011;37253;48.736;9.294;2023-09-30T06:21:53;3.15;;;1.60;;
51190;SDS011;37253;48.736;9.294;2023-09-30T06:23:53;2.72;;;1.50;;
51190;SDS011;37253;48.736;9.294;2023-09-30T06:25:54;6.40;;;1.70;;
51190;SDS011;37253;48.736;9.294;2023-09-30T06:27:54;6.05;;;1.90;;
51190;SDS011;37253;48.736;9.294;2023-09-30T06:29:54;3.50;;;1.60;;
51190;SDS011;37253;48.736;9.294;2023-09-30T06:31:55;5.88;;;2.88;;
51190;SDS011;37253;48.736;9.294;2023-09-30T06:33:55;4.00;;;1.83;;
51190;SDS011;37253;48.736;9.294;2023-09-30T06:35:58;6.47;;;1.75;;
51190;SDS011;37253;48.736;9.294;2023-09-30T06:38:02;4.43;;;1.90;;
51190;SDS011;37253;48.736;9.294;2023-09-30T06:40:02;3.60;;;1.80;;
51190;SDS011;37253;48.736;9.294;2023-09-30T06:42:04;9.50;;;2.08;;
51190;SDS011;37253;48.736;9.294;2023-09-30T06:44:07;7.97;;;1.90;;
51190;SDS011;37253;48.736;9.294;2023-09-30T06:46:07;6.53;;;2.45;;
51190;SDS011;37253;48.736;9.294;2023-09-30T06:48:09;7.72;;;2.40;;
51190;SDS011;37253;48.736;9.294;2023-09-30T06:50:12;6.15;;;2.25;;
51190;SDS011;37253;48.736;9.294;2023-09-30T06:52:16;7.82;;;2.03;;
51190;SDS011;37253;48.736;9.294;2023-09-30T06:54:17;5.88;;;2.10;;
51190;SDS011;37253;48.736;9.294;2023-09-30T06:56:17;11.35;;;2.70;;
51190;SDS011;37253;48.736;9.294;2023-09-30T06:58:18;9.40;;;2.38;;
51190;SDS011;37253;48.736;9.294;2023-09-30T07:00:21;10.00;;;2.20;;
51190;SDS011;37253;48.736;9.294;2023-09-30T07:02:21;9.82;;;2.60;;
51190;SDS011;37253;48.736;9.294;2023-09-30T07:04:21;7.13;;;2.22;;
51190;SDS011;37253;48.736;9.294;2023-09-30T07:06:25;8.48;;;2.20;;
51190;SDS011;37253;48.736;9.294;2023-09-30T07:08:27;11.48;;;2.10;;
51190;SDS011;37253;48.736;9.294;2023-09-30T07:12:30;6.95;;;2.28;;
51190;SDS011;37253;48.736;9.294;2023-09-30T07:14:31;9.02;;;2.08;;
51190;SDS011;37253;48.736;9.294;2023-09-30T07:16:31;4.53;;;1.88;;
51190;SDS011;37253;48.736;9.294;2023-09-30T07:18:32;4.75;;;1.70;;
51190;SDS011;37253;48.736;9.294;2023-09-30T07:20:32;4.20;;;1.60;;
51190;SDS011;37253;48.736;9.294;2023-09-30T07:22:36;6.18;;;1.85;;
51190;SDS011;37253;48.736;9.294;2023-09-30T07:24:36;8.63;;;2.13;;
51190;SDS011;37253;48.736;9.294;2023-09-30T07:26:36;4.97;;;2.03;;
51190;SDS011;37253;48.736;9.294;2023-09-30T07:28:36;5.32;;;1.85;;
51190;SDS011;37253;48.736;9.294;2023-09-30T07:30:37;4.65;;;1.55;;
51190;SDS011;37253;48.736;9.294;2023-09-30T07:32:38;7.68;;;1.70;;
51190;SDS011;37253;48.736;9.294;2023-09-30T07:34:38;4.50;;;1.50;;
51190;SDS011;37253;48.736;9.294;2023-09-30T07:36:38;5.30;;;1.80;;
51190;SDS011;37253;48.736;9.294;2023-09-30T07:38:39;4.28;;;1.80;;
51190;SDS011;37253;48.736;9.294;2023-09-30T07:40:40;3.47;;;1.40;;
51190;SDS011;37253;48.736;9.294;2023-09-30T07:42:41;5.47;;;1.65;;
51190;SDS011;37253;48.736;9.294;2023-09-30T07:44:41;5.82;;;1.55;;
51190;SDS011;37253;48.736;9.294;2023-09-30T07:46:42;8.63;;;2.03;;
51190;SDS011;37253;48.736;9.294;2023-09-30T07:48:43;12.48;;;2.03;;
51190;SDS011;37253;48.736;9.294;2023-09-30T07:50:43;9.95;;;2.25;;
51190;SDS011;37253;48.736;9.294;2023-09-30T07:52:43;10.18;;;1.80;;
51190;SDS011;37253;48.736;9.294;2023-09-30T07:54:44;12.82;;;2.05;;
51190;SDS011;37253;48.736;9.294;2023-09-30T07:56:45;18.63;;;2.47;;
51190;SDS011;37253;48.736;9.294;2023-09-30T07:58:45;13.35;;;2.58;;
51190;SDS011;37253;48.736;9.294;2023-09-30T08:00:45;10.55;;;2.22;;
51190;SDS011;37253;48.736;9.294;2023-09-30T08:02:46;12.70;;;2.20;;
51190;SDS011;37253;48.736;9.294;2023-09-30T08:04:46;10.90;;;1.92;;
51190;SDS011;37253;48.736;9.294;2023-09-30T08:06:48;14.07;;;2.55;;
51190;SDS011;37253;48.736;9.294;2023-09-30T08:08:49;10.30;;;2.25;;
51190;SDS011;37253;48.736;9.294;2023-09-30T08:10:50;6.38;;;1.98;;
51190;SDS011;37253;48.736;9.294;2023-09-30T08:12:50;6.80;;;2.05;;
51190;SDS011;37253;48.736;9.294;2023-09-30T08:14:51;7.82;;;2.20;;
51190;SDS011;37253;48.736;9.294;2023-09-30T08:16:52;9.05;;;2.20;;
51190;SDS011;37253;48.736;9.294;2023-09-30T08:18:52;7.78;;;2.13;;
51190;SDS011;37253;48.736;9.294;2023-09-30T08:20:52;6.35;;;2.40;;
51190;SDS011;37253;48.736;9.294;2023-09-30T08:22:53;6.82;;;1.80;;
51190;SDS011;37253;48.736;9.294;2023-09-30T08:24:54;7.10;;;2.28;;
51190;SDS011;37253;48.736;9.294;2023-09-30T08:26:54;7.82;;;2.20;;
51190;SDS011;37253;48.736;9.294;2023-09-30T08:28:56;5.75;;;2.25;;
51190;SDS011;37253;48.736;9.294;2023-09-30T08:31:01;6.22;;;2.47;;
51190;SDS011;37253;48.736;9.294;2023-09-30T08:33:02;6.93;;;2.53;;
51190;SDS011;37253;48.736;9.294;2023-09-30T08:35:03;4.78;;;2.25;;
51190;SDS011;37253;48.736;9.294;2023-09-30T08:37:04;12.82;;;2.45;;
51190;SDS011;37253;48.736;9.294;2023-09-30T08:39:05;8.13;;;2.33;;
51190;SDS011;37253;48.736;9.294;2023-09-30T08:41:05;8.93;;;2.13;;
51190;SDS011;37253;48.736;9.294;2023-09-30T08:43:07;8.43;;;2.28;;
51190;SDS011;37253;48.736;9.294;2023-09-30T08:45:12;6.07;;;2.30;;
51190;SDS011;37253;48.736;9.294;2023-09-30T08:47:14;7.15;;;2.20;;
51190;SDS011;37253;48.736;9.294;2023-09-30T08:49:15;10.10;;;2.15;;
51190;SDS011;37253;48.736;9.294;2023-09-30T08:51:15;7.60;;;2.83;;
51190;SDS011;37253;48.736;9.294;2023-09-30T08:53:16;7.53;;;2.22;;
51190;SDS011;37253;48.736;9.294;2023-09-30T08:55:16;6.25;;;2.25;;
51190;SDS011;37253;48.736;9.294;2023-09-30T08:57:18;5.47;;;2.10;;
51190;SDS011;37253;48.736;9.294;2023-09-30T08:59:19;10.07;;;2.10;;
51190;SDS011;37253;48.736;9.294;2023-09-30T09:01:19;9.20;;;2.28;;
51190;SDS011;37253;48.736;9.294;2023-09-30T09:03:20;9.38;;;2.40;;
51190;SDS011;37253;48.736;9.294;2023-09-30T09:05:20;8.35;;;2.22;;
51190;SDS011;37253;48.736;9.294;2023-09-30T09:07:21;5.55;;;1.95;;
51190;SDS011;37253;48.736;9.294;2023-09-30T09:09:21;8.07;;;2.17;;
51190;SDS011;37253;48.736;9.294;2023-09-30T09:11:23;7.25;;;2.25;;
51190;SDS011;37253;48.736;9.294;2023-09-30T09:13:27;6.28;;;2.22;;
51190;SDS011;37253;48.736;9.294;2023-09-30T09:15:27;7.20;;;2.10;;
51190;SDS011;37253;48.736;9.294;2023-09-30T09:17:41;5.80;;;2.42;;
51190;SDS011;37253;48.736;9.294;2023-09-30T09:19:43;6.60;;;2.50;;
51190;SDS011;37253;48.736;9.294;2023-09-30T09:22:02;6.35;;;2.50;;
51190;SDS011;37253;48.736;9.294;2023-09-30T09:24:04;6.50;;;2.53;;
51190;SDS011;37253;48.736;9.294;2023-09-30T09:26:05;5.28;;;2.13;;
51190;SDS011;37253;48.736;9.294;2023-09-30T09:28:06;5.18;;;2.35;;
51190;SDS011;37253;48.736;9.294;2023-09-30T09:32:25;5.97;;;2.50;;
51190;SDS011;37253;48.736;9.294;2023-09-30T09:34:25;5.35;;;2.40;;
51190;SDS011;37253;48.736;9.294;2023-09-30T09:36:47;5.30;;;2.42;;
51190;SDS011;37253;48.736;9.294;2023-09-30T09:38:49;7.15;;;2.00;;
51190;SDS011;37253;48.736;9.294;2023-09-30T09:40:58;5.10;;;2.13;;
51190;SDS011;37253;48.736;9.294;2023-09-30T09:42:59;4.25;;;2.13;;
51190;SDS011;37253;48.736;9.294;2023-09-30T09:47:03;7.10;;;2.55;;
51190;SDS011;37253;48.736;9.294;2023-09-30T09:49:06;6.38;;;1.90;;
51190;SDS011;37253;48.736;9.294;2023-09-30T09:51:06;5.88;;;2.60;;
51190;SDS011;37253;48.736;9.294;2023-09-30T09:53:09;9.73;;;2.40;;
51190;SDS011;37253;48.736;9.294;2023-09-30T09:55:11;5.20;;;2.20;;
51190;SDS011;37253;48.736;9.294;2023-09-30T09:57:12;5.47;;;1.88;;
51190;SDS011;37253;48.736;9.294;2023-09-30T09:59:12;5.38;;;2.20;;
51190;SDS011;37253;48.736;9.294;2023-09-30T10:01:13;4.82;;;2.20;;
51190;SDS011;37253;48.736;9.294;2023-09-30T10:03:14;5.18;;;2.42;;
51190;SDS011;37253;48.736;9.294;2023-09-30T10:05:15;4.78;;;2.38;;
51190;SDS011;37253;48.736;9.294;2023-09-30T10:07:20;6.78;;;2.53;;
51190;SDS011;37253;48.736;9.294;2023-09-30T10:09:22;5.55;;;2.30;;
51190;SDS011;37253;48.736;9.294;2023-09-30T10:11:23;4.75;;;2.00;;
51190;SDS011;37253;48.736;9.294;2023-09-30T10:15:55;4.80;;;2.20;;
51190;SDS011;37253;48.736;9.294;2023-09-30T10:20:12;4.95;;;2.25;;
51190;SDS011;37253;48.736;9.294;2023-09-30T10:26:22;4.10;;;2.03;;
51190;SDS011;37253;48.736;9.294;2023-09-30T10:28:36;8.50;;;2.83;;
51190;SDS011;37253;48.736;9.294;2023-09-30T10:30:37;5.15;;;2.33;;
51190;SDS011;37253;48.736;9.294;2023-09-30T10:34:50;7.28;;;2.20;;
51190;SDS011;37253;48.736;9.294;2023-09-30T10:36:52;8.07;;;2.50;;
51190;SDS011;37253;48.736;9.294;2023-09-30T10:38:52;5.82;;;2.47;;
51190;SDS011;37253;48.736;9.294;2023-09-30T10:40:53;7.15;;;2.25;;
51190;SDS011;37253;48.736;9.294;2023-09-30T10:42:53;4.65;;;1.90;;
51190;SDS011;37253;48.736;9.294;2023-09-30T10:44:57;10.20;;;2.55;;
51190;SDS011;37253;48.736;9.294;2023-09-30T10:46:58;7.78;;;2.50;;
51190;SDS011;37253;48.736;9.294;2023-09-30T10:49:14;7.07;;;2.50;;
51190;SDS011;37253;48.736;9.294;2023-09-30T10:51:17;7.85;;;2.17;;
51190;SDS011;37253;48.736;9.294;2023-09-30T10:53:21;5.97;;;2.65;;
51190;SDS011;37253;48.736;9.294;2023-09-30T10:55:22;13.65;;;2.85;;
51190;SDS011;37253;48.736;9.294;2023-09-30T10:57:28;8.50;;;2.50;;
51190;SDS011;37253;48.736;9.294;2023-09-30T10:59:29;13.98;;;2.50;;
51190;SDS011;37253;48.736;9.294;2023-09-30T11:01:34;10.55;;;2.80;;
51190;SDS011;37253;48.736;9.294;2023-09-30T11:03:35;12.45;;;2.58;;
51190;SDS011;37253;48.736;9.294;2023-09-30T11:05:36;10.77;;;3.00;;
51190;SDS011;37253;48.736;9.294;2023-09-30T11:07:36;12.75;;;2.85;;
51190;SDS011;37253;48.736;9.294;2023-09-30T11:09:37;13.82;;;2.90;;
51190;SDS011;37253;48.736;9.294;2023-09-30T11:11:40;7.68;;;2.33;;
51190;SDS011;37253;48.736;9.294;2023-09-30T11:13:50;8.35;;;2.80;;
51190;SDS011;37253;48.736;9.294;2023-09-30T11:16:01;10.35;;;3.45;;
51190;SDS011;37253;48.736;9.294;2023-09-30T11:18:16;14.02;;;3.70;;
51190;SDS011;37253;48.736;9.294;2023-09-30T11:20:17;10.27;;;2.92;;
51190;SDS011;37253;48.736;9.294;2023-09-30T11:22:18;8.40;;;3.17;;
51190;SDS011;37253;48.736;9.294;2023-09-30T11:24:19;14.23;;;3.88;;
51190;SDS011;37253;48.736;9.294;2023-09-30T11:26:28;13.27;;;3.70;;
51190;SDS011;37253;48.736;9.294;2023-09-30T11:28:35;5.97;;;3.20;;
51190;SDS011;37253;48.736;9.294;2023-09-30T11:30:52;24.02;;;3.38;;
51190;SDS011;37253;48.736;9.294;2023-09-30T11:32:59;10.82;;;3.45;;
51190;SDS011;37253;48.736;9.294;2023-09-30T11:35:00;9.40;;;3.30;;
51190;SDS011;37253;48.736;9.294;2023-09-30T11:37:00;17.15;;;3.45;;
51190;SDS011;37253;48.736;9.294;2023-09-30T11:39:01;10.90;;;3.42;;
51190;SDS011;37253;48.736;9.294;2023-09-30T11:41:03;10.43;;;3.35;;
51190;SDS011;37253;48.736;9.294;2023-09-30T11:43:06;9.80;;;4.00;;
51190;SDS011;37253;48.736;9.294;2023-09-30T11:45:22;10.25;;;3.70;;
51190;SDS011;37253;48.736;9.294;2023-09-30T11:47:28;7.15;;;3.53;;
51190;SDS011;37253;48.736;9.294;2023-09-30T11:49:37;8.38;;;3.53;;
51190;SDS011;37253;48.736;9.294;2023-09-30T11:51:44;7.60;;;3.70;;
51190;SDS011;37253;48.736;9.294;2023-09-30T11:53:46;10.85;;;4.00;;
51190;SDS011;37253;48.736;9.294;2023-09-30T11:55:47;12.05;;;3.78;;
51190;SDS011;37253;48.736;9.294;2023-09-30T11:57:47;13.93;;;4.47;;
51190;SDS011;37253;48.736;9.294;2023-09-30T11:59:47;9.13;;;3.67;;
51190;SDS011;37253;48.736;9.294;2023-09-30T12:01:48;8.70;;;3.50;;
51190;SDS011;37253;48.736;9.294;2023-09-30T12:03:48;7.05;;;3.40;;
51190;SDS011;37253;48.736;9.294;2023-09-30T12:05:49;10.27;;;3.75;;
51190;SDS011;37253;48.736;9.294;2023-09-30T12:07:49;7.57;;;3.53;;
51190;SDS011;37253;48.736;9.294;2023-09-30T12:09:49;8.48;;;3.30;;
51190;SDS011;37253;48.736;9.294;2023-09-30T12:11:50;8.10;;;3.40;;
51190;SDS011;37253;48.736;9.294;2023-09-30T12:13:50;7.70;;;3.30;;
51190;SDS011;37253;48.736;9.294;2023-09-30T12:15:51;9.80;;;3.60;;
51190;SDS011;37253;48.736;9.294;2023-09-30T12:17:53;12.05;;;4.18;;
51190;SDS011;37253;48.736;9.294;2023-09-30T12:19:53;12.40;;;4.18;;
51190;SDS011;37253;48.736;9.294;2023-09-30T12:21:53;11.43;;;3.78;;
51190;SDS011;37253;48.736;9.294;2023-09-30T12:23:54;12.68;;;3.90;;
51190;SDS011;37253;48.736;9.294;2023-09-30T12:25:54;11.88;;;3.97;;
51190;SDS011;37253;48.736;9.294;2023-09-30T12:27:54;11.32;;;3.78;;
51190;SDS011;37253;48.736;9.294;2023-09-30T12:29:55;13.63;;;3.47;;